sensor_id;sensor_type;location;lat;lon;timestamp;temperature;humidity
5806;DHT22;2929;50.810;8.342;2024-03-23T00:52:00;5.30;99.90
5806;DHT22;2929;50.810;8.342;2024-03-23T00:54:26;5.40;99.90
5806;DHT22;2929;50.810;8.342;2024-03-23T00:56:53;5.50;99.90
5806;DHT22;2929;50.810;8.342;2024-03-23T00:59:19;5.50;99.90
5806;DHT22;2929;50.810;8.342;2024-03-23T01:01:47;5.50;99.90
5806;DHT22;2929;50.810;8.342;2024-03-23T01:04:15;5.50;99.90
5806;DHT22;2929;50.810;8.342;2024-03-23T01:06:42;5.60;99.90
5806;DHT22;2929;50.810;8.342;2024-03-23T01:09:08;5.60;99.90
5806;DHT22;2929;50.810;8.342;2024-03-23T01:11:36;5.60;99.90
5806;DHT22;2929;50.810;8.342;2024-03-23T01:14:02;5.50;99.90
5806;DHT22;2929;50.810;8.342;2024-03-23T01:16:29;5.50;99.90
5806;DHT22;2929;50.810;8.342;2024-03-23T01:18:55;5.40;99.90
5806;DHT22;2929;50.810;8.342;2024-03-23T01:21:23;5.40;99.90
5806;DHT22;2929;50.810;8.342;2024-03-23T01:23:49;5.40;99.90
5806;DHT22;2929;50.810;8.342;2024-03-23T01:26:16;5.40;99.90
5806;DHT22;2929;50.810;8.342;2024-03-23T01:28:42;5.40;99.90
5806;DHT22;2929;50.810;8.342;2024-03-23T01:31:09;5.50;99.90
5806;DHT22;2929;50.810;8.342;2024-03-23T01:33:36;5.50;99.90
5806;DHT22;2929;50.810;8.342;2024-03-23T01:36:03;5.50;99.90
5806;DHT22;2929;50.810;8.342;2024-03-23T01:38:32;5.50;99.90
5806;DHT22;2929;50.810;8.342;2024-03-23T01:40:59;5.50;99.90
5806;DHT22;2929;50.810;8.342;2024-03-23T01:43:25;5.50;99.90
5806;DHT22;2929;50.810;8.342;2024-03-23T01:45:52;5.60;99.90
5806;DHT22;2929;50.810;8.342;2024-03-23T01:48:19;5.80;99.90
5806;DHT22;2929;50.810;8.342;2024-03-23T01:50:46;5.80;99.90
5806;DHT22;2929;50.810;8.342;2024-03-23T01:53:14;5.70;99.90
5806;DHT22;2929;50.810;8.342;2024-03-23T01:55:44;5.60;99.90
5806;DHT22;2929;50.810;8.342;2024-03-23T01:58:10;5.70;99.90
5806;DHT22;2929;50.810;8.342;2024-03-23T02:00:37;5.70;99.90
5806;DHT22;2929;50.810;8.342;2024-03-23T02:03:22;5.80;99.90
5806;DHT22;2929;50.810;8.342;2024-03-23T02:05:49;5.90;99.90
5806;DHT22;2929;50.810;8.342;2024-03-23T02:08:17;5.90;99.90
5806;DHT22;2929;50.810;8.342;2024-03-23T02:10:48;5.80;99.90
5806;DHT22;2929;50.810;8.342;2024-03-23T02:13:14;5.80;99.90
5806;DHT22;2929;50.810;8.342;2024-03-23T02:15:42;5.80;99.90
5806;DHT22;2929;50.810;8.342;2024-03-23T02:18:09;5.80;99.90
5806;DHT22;2929;50.810;8.342;2024-03-23T02:20:39;5.80;99.90
5806;DHT22;2929;50.810;8.342;2024-03-23T02:23:10;5.90;99.90
5806;DHT22;2929;50.810;8.342;2024-03-23T02:25:39;6.00;99.90
5806;DHT22;2929;50.810;8.342;2024-03-23T02:28:05;6.10;99.90
5806;DHT22;2929;50.810;8.342;2024-03-23T02:30:33;6.10;99.90
5806;DHT22;2929;50.810;8.342;2024-03-23T02:32:59;6.10;99.90
5806;DHT22;2929;50.810;8.342;2024-03-23T02:35:26;6.10;99.90
5806;DHT22;2929;50.810;8.342;2024-03-23T02:37:52;6.10;99.90
5806;DHT22;2929;50.810;8.342;2024-03-23T02:40:22;6.20;99.90
5806;DHT22;2929;50.810;8.342;2024-03-23T02:42:48;6.10;99.90
5806;DHT22;2929;50.810;8.342;2024-03-23T02:45:15;6.20;99.90
5806;DHT22;2929;50.810;8.342;2024-03-23T02:47:41;6.30;99.90
5806;DHT22;2929;50.810;8.342;2024-03-23T02:50:09;6.40;99.90
5806;DHT22;2929;50.810;8.342;2024-03-23T02:52:35;6.40;99.90
5806;DHT22;2929;50.810;8.342;2024-03-23T02:55:02;6.40;99.90
5806;DHT22;2929;50.810;8.342;2024-03-23T02:57:29;6.30;99.90
5806;DHT22;2929;50.810;8.342;2024-03-23T02:59:56;6.30;99.90
5806;DHT22;2929;50.810;8.342;2024-03-23T03:02:22;6.30;99.90
5806;DHT22;2929;50.810;8.342;2024-03-23T03:04:49;6.30;99.90
5806;DHT22;2929;50.810;8.342;2024-03-23T03:07:15;6.20;99.90
5806;DHT22;2929;50.810;8.342;2024-03-23T03:09:43;6.20;99.90
5806;DHT22;2929;50.810;8.342;2024-03-23T03:12:08;6.20;99.90
5806;DHT22;2929;50.810;8.342;2024-03-23T03:14:38;6.20;99.90
5806;DHT22;2929;50.810;8.342;2024-03-23T03:17:04;6.10;99.90
5806;DHT22;2929;50.810;8.342;2024-03-23T03:19:31;6.10;99.90
5806;DHT22;2929;50.810;8.342;2024-03-23T03:21:57;6.10;99.90
5806;DHT22;2929;50.810;8.342;2024-03-23T03:24:23;6.00;99.90
5806;DHT22;2929;50.810;8.342;2024-03-23T03:26:49;6.10;99.90
5806;DHT22;2929;50.810;8.342;2024-03-23T03:29:16;6.10;99.90
5806;DHT22;2929;50.810;8.342;2024-03-23T03:31:44;6.10;99.90
5806;DHT22;2929;50.810;8.342;2024-03-23T03:34:12;6.10;99.90
5806;DHT22;2929;50.810;8.342;2024-03-23T03:36:38;6.10;99.90
5806;DHT22;2929;50.810;8.342;2024-03-23T03:39:05;6.00;99.90
5806;DHT22;2929;50.810;8.342;2024-03-23T03:41:32;6.10;99.90
5806;DHT22;2929;50.810;8.342;2024-03-23T03:43:59;6.10;99.90
5806;DHT22;2929;50.810;8.342;2024-03-23T03:46:27;6.00;99.90
5806;DHT22;2929;50.810;8.342;2024-03-23T03:48:57;6.00;99.90
5806;DHT22;2929;50.810;8.342;2024-03-23T03:51:23;6.00;99.90
5806;DHT22;2929;50.810;8.342;2024-03-23T03:53:50;6.00;99.90
5806;DHT22;2929;50.810;8.342;2024-03-23T03:56:16;5.90;99.90
5806;DHT22;2929;50.810;8.342;2024-03-23T03:58:43;6.00;99.90
5806;DHT22;2929;50.810;8.342;2024-03-23T04:01:09;6.00;99.90
5806;DHT22;2929;50.810;8.342;2024-03-23T04:03:36;6.00;99.90
5806;DHT22;2929;50.810;8.342;2024-03-23T04:06:04;5.90;99.90
5806;DHT22;2929;50.810;8.342;2024-03-23T04:08:31;5.90;99.90
5806;DHT22;2929;50.810;8.342;2024-03-23T04:10:57;5.90;99.90
5806;DHT22;2929;50.810;8.342;2024-03-23T04:13:23;5.90;99.90
5806;DHT22;2929;50.810;8.342;2024-03-23T04:15:54;5.80;99.90
5806;DHT22;2929;50.810;8.342;2024-03-23T04:18:20;5.80;99.90
5806;DHT22;2929;50.810;8.342;2024-03-23T04:20:47;5.70;99.90
5806;DHT22;2929;50.810;8.342;2024-03-23T04:23:15;5.60;99.90
5806;DHT22;2929;50.810;8.342;2024-03-23T04:25:41;5.70;99.90
5806;DHT22;2929;50.810;8.342;2024-03-23T04:28:08;5.60;99.90
5806;DHT22;2929;50.810;8.342;2024-03-23T04:30:34;5.50;99.90
5806;DHT22;2929;50.810;8.342;2024-03-23T04:33:02;5.50;99.90
5806;DHT22;2929;50.810;8.342;2024-03-23T04:35:28;5.40;99.90
5806;DHT22;2929;50.810;8.342;2024-03-23T04:37:55;5.40;99.90
5806;DHT22;2929;50.810;8.342;2024-03-23T04:40:25;5.30;99.90
5806;DHT22;2929;50.810;8.342;2024-03-23T04:42:52;5.30;99.90
5806;DHT22;2929;50.810;8.342;2024-03-23T04:45:19;5.20;99.90
5806;DHT22;2929;50.810;8.342;2024-03-23T04:47:48;5.20;99.90
5806;DHT22;2929;50.810;8.342;2024-03-23T04:50:15;5.30;99.90
5806;DHT22;2929;50.810;8.342;2024-03-23T04:52:42;5.10;99.90
5806;DHT22;2929;50.810;8.342;2024-03-23T04:55:09;5.10;99.90
5806;DHT22;2929;50.810;8.342;2024-03-23T04:57:39;5.00;99.90
5806;DHT22;2929;50.810;8.342;2024-03-23T05:00:06;5.00;99.90
5806;DHT22;2929;50.810;8.342;2024-03-23T05:02:43;4.90;99.90
5806;DHT22;2929;50.810;8.342;2024-03-23T05:05:09;4.80;99.90
5806;DHT22;2929;50.810;8.342;2024-03-23T05:07:36;4.80;99.90
5806;DHT22;2929;50.810;8.342;2024-03-23T05:10:03;4.80;99.90
5806;DHT22;2929;50.810;8.342;2024-03-23T05:12:30;4.80;99.90
5806;DHT22;2929;50.810;8.342;2024-03-23T05:14:58;4.70;99.90
5806;DHT22;2929;50.810;8.342;2024-03-23T05:17:25;4.70;99.90
5806;DHT22;2929;50.810;8.342;2024-03-23T05:19:51;4.70;99.90
5806;DHT22;2929;50.810;8.342;2024-03-23T05:22:18;4.70;99.90
5806;DHT22;2929;50.810;8.342;2024-03-23T05:24:45;4.60;99.90
5806;DHT22;2929;50.810;8.342;2024-03-23T05:27:12;4.50;99.90
5806;DHT22;2929;50.810;8.342;2024-03-23T05:29:38;4.60;99.90
5806;DHT22;2929;50.810;8.342;2024-03-23T05:32:08;4.50;99.90
5806;DHT22;2929;50.810;8.342;2024-03-23T05:34:45;4.40;99.90
5806;DHT22;2929;50.810;8.342;2024-03-23T05:37:12;4.40;99.90
5806;DHT22;2929;50.810;8.342;2024-03-23T05:39:37;4.30;99.90
5806;DHT22;2929;50.810;8.342;2024-03-23T05:42:05;4.40;99.90
5806;DHT22;2929;50.810;8.342;2024-03-23T05:44:31;4.30;99.90
